CheckWX is a tool to help pilots better visualize weather data.  It is not intended as a substitute for an official pre-flight weather briefing.

08:06:04 UTC

KBED TAF
Laurence G Hanscom Field Airport
Bedford, Massachusetts, USA
KBED 210528Z 2106/2206 31007KT P6SM SCT040 FM211000 32006KT P6SM SCT120 FM212000 30003KT P6SM SKC FM220100 00000KT P6SM SCT200 FM220400 20003KT P6SM BKN120

Nov-21@
06:00 UTC

Nov-21 @ 06:00 UTC

Nov-21@
10:00 UTC

Nov-21 @ 10:00 UTC

KBED 210528Z 2106/2206 31007KT P6SM SCT040
Wind
  • 310° at 7 KTS
Cloud Levels
  • Scattered at 4,000' AGL

Nov-21@
10:00 UTC

Nov-21 @ 10:00 UTC

Nov-21@
20:00 UTC

Nov-21 @ 20:00 UTC

FM211000 32006KT P6SM SCT120

From

From Standard forecast or significant change

Wind
  • 320° at 6 KTS
Cloud Levels
  • Scattered at 12,000' AGL

Nov-21@
20:00 UTC

Nov-21 @ 20:00 UTC

Nov-22@
01:00 UTC

Nov-22 @ 01:00 UTC

FM212000 30003KT P6SM SKC

From

From Standard forecast or significant change

Wind
  • 300° at 3 KTS
Cloud Levels
  • Clear skies

Nov-22@
01:00 UTC

Nov-22 @ 01:00 UTC

Nov-22@
04:00 UTC

Nov-22 @ 04:00 UTC

FM220100 00000KT P6SM SCT200

From

From Standard forecast or significant change

Cloud Levels
  • Scattered at 20,000' AGL

Nov-22@
04:00 UTC

Nov-22 @ 04:00 UTC

Nov-22@
06:00 UTC

Nov-22 @ 06:00 UTC

FM220400 20003KT P6SM BKN120

From

From Standard forecast or significant change

Wind
  • 200° at 3 KTS
Cloud Levels
  • Broken at 12,000' AGL